Time;durP1;ratioP1;P1;durP2;ratioP2;P2;SDS_P1;SDS_P2;PMS_P1;PMS_P2;Temp;Humidity;BMP_temperature;BMP_pressure;BME280_temperature;BME280_humidity;BME280_pressure;Samples;Min_cycle;Max_cycle;Signal;HPM_P1;HPM_P2
2021/11/24 00:00:51;;;;;;;;;;;;;;;21.50;56.82;100878.88;2067036;28;947;-56
2021/11/24 00:01:51;;;;;;;;;;;;;;;21.51;55.17;100872.53;2058272;28;970;-55
2021/11/24 00:02:51;;;;;;;;;;;;;;;21.46;57.42;100876.28;2058515;28;1057;-55
2021/11/24 00:03:52;;;;;;;;;;;;;;;21.48;57.84;100877.09;2066792;28;1973;-55
2021/11/24 00:04:52;;;;;;;;;;;;;;;21.48;58.47;100873.56;2066992;28;773;-55
2021/11/24 00:05:52;;;;;;;;;;;;;;;21.49;55.66;100875.28;2066932;28;780;-55
2021/11/24 00:06:52;;;;;;;;;;;;;;;21.51;56.67;100883.31;2067004;28;840;-55
2021/11/24 00:07:52;;;;;;;;;;;;;;;21.45;57.87;100879.91;2066527;28;954;-55
2021/11/24 00:08:53;;;;;;;;;;;;;;;21.44;56.20;100880.00;2066956;28;827;-56
2021/11/24 00:09:53;;;;;;;;;;;;;;;21.42;57.60;100871.94;2066877;28;856;-55
2021/11/24 00:10:53;;;;;;;;;;;;;;;21.40;57.96;100867.56;2066805;28;970;-55
2021/11/24 00:11:53;;;;;;;;;;;;;;;21.38;57.19;100864.91;2066867;28;835;-55
2021/11/24 00:12:53;;;;;;;;;;;;;;;21.38;55.47;100872.97;2066988;28;1021;-55
2021/11/24 00:13:55;;;;;;;;;;;;;;;21.43;55.31;100870.16;2066519;28;990;-55
2021/11/24 00:14:55;;;;;;;;;;;;;;;21.38;56.23;100867.59;2066966;28;812;-55
2021/11/24 00:15:56;;;;;;;;;;;;;;;21.36;55.71;100872.16;2066859;28;756;-55
2021/11/24 00:16:56;;;;;;;;;;;;;;;21.34;58.83;100871.34;2066936;28;939;-55
2021/11/24 00:17:56;;;;;;;;;;;;;;;21.36;55.42;100876.69;2066863;28;990;-55
2021/11/24 00:18:56;;;;;;;;;;;;;;;21.36;56.36;100865.91;2066827;28;816;-55
2021/11/24 00:19:56;;;;;;;;;;;;;;;21.36;56.39;100869.47;2066931;28;843;-55
2021/11/24 00:20:57;;;;;;;;;;;;;;;21.41;54.53;100872.00;2066782;28;963;-55
2021/11/24 00:21:57;;;;;;;;;;;;;;;21.38;55.52;100874.81;2066796;28;994;-55
2021/11/24 00:22:57;;;;;;;;;;;;;;;21.32;57.55;100870.50;2066799;28;848;-55
2021/11/24 00:23:57;;;;;;;;;;;;;;;21.33;55.93;100870.47;2066643;28;1898;-55
2021/11/24 00:24:57;;;;;;;;;;;;;;;21.33;57.08;100873.16;2066799;28;978;-55
2021/11/24 00:25:57;;;;;;;;;;;;;;;21.35;55.13;100872.22;2066842;28;765;-55
2021/11/24 00:26:58;;;;;;;;;;;;;;;21.30;56.23;100864.28;2066923;28;934;-55
2021/11/24 00:27:58;;;;;;;;;;;;;;;21.31;55.52;100868.75;2066910;28;1205;-55
2021/11/24 00:28:58;;;;;;;;;;;;;;;21.29;55.90;100873.31;2066904;28;876;-55
2021/11/24 00:29:59;;;;;;;;;;;;;;;21.36;54.45;100877.56;2066474;28;771;-55
2021/11/24 00:30:59;;;;;;;;;;;;;;;21.32;55.63;100875.91;2066926;28;887;-55
2021/11/24 00:31:59;;;;;;;;;;;;;;;21.31;56.40;100871.44;2066851;28;840;-55
2021/11/24 00:33:00;;;;;;;;;;;;;;;21.32;55.13;100873.22;2066870;28;1312;-55
2021/11/24 00:34:00;;;;;;;;;;;;;;;21.37;53.86;100871.22;2066483;28;736;-55
2021/11/24 00:35:02;;;;;;;;;;;;;;;21.33;55.47;100874.97;2067837;28;769;-55
2021/11/24 00:36:03;;;;;;;;;;;;;;;21.32;55.98;100882.19;2068451;28;1042;-55
2021/11/24 00:37:03;;;;;;;;;;;;;;;21.34;54.76;100874.03;2059915;28;867;-55
2021/11/24 00:38:03;;;;;;;;;;;;;;;21.28;57.97;100874.25;2059504;28;993;-55
2021/11/24 00:39:03;;;;;;;;;;;;;;;21.25;55.52;100867.16;2075835;28;1331;-55
2021/11/24 00:40:04;;;;;;;;;;;;;;;21.25;56.65;100872.56;2067822;28;1021;-55
2021/11/24 00:41:04;;;;;;;;;;;;;;;21.25;55.21;100871.66;2067935;28;910;-55
2021/11/24 00:42:05;;;;;;;;;;;;;;;21.26;55.38;100873.41;2076613;28;1434;-55
2021/11/24 00:43:05;;;;;;;;;;;;;;;21.23;57.16;100865.44;2076596;28;1000;-55
2021/11/24 00:44:05;;;;;;;;;;;;;;;21.24;56.34;100864.50;2076501;28;1894;-56
2021/11/24 00:45:06;;;;;;;;;;;;;;;21.22;54.19;100869.06;2076593;28;973;-55
2021/11/24 00:46:06;;;;;;;;;;;;;;;21.23;56.87;100868.16;2076162;28;1301;-55
2021/11/24 00:47:08;;;;;;;;;;;;;;;21.15;56.75;100869.31;2076567;28;847;-55
2021/11/24 00:48:08;;;;;;;;;;;;;;;21.18;56.21;100857.53;2076494;28;844;-55
2021/11/24 00:49:09;;;;;;;;;;;;;;;21.12;58.56;100860.44;2076602;28;1032;-55
2021/11/24 00:50:09;;;;;;;;;;;;;;;21.16;55.04;100860.31;2076542;28;796;-55
2021/11/24 00:51:09;;;;;;;;;;;;;;;21.18;54.31;100850.34;2076577;28;910;-55
2021/11/24 00:52:10;;;;;;;;;;;;;;;21.20;55.07;100857.50;2076493;28;824;-55
2021/11/24 00:53:10;;;;;;;;;;;;;;;21.25;54.48;100856.41;2076551;28;990;-55
2021/11/24 00:54:10;;;;;;;;;;;;;;;21.24;53.12;100857.31;2076123;28;1067;-55
2021/11/24 00:55:11;;;;;;;;;;;;;;;21.23;54.70;100854.66;2076556;28;764;-55
2021/11/24 00:56:11;;;;;;;;;;;;;;;21.14;56.76;100851.41;2076508;28;1045;-55
2021/11/24 00:57:11;;;;;;;;;;;;;;;21.13;56.25;100852.34;2075967;28;1043;-55
2021/11/24 00:58:11;;;;;;;;;;;;;;;21.15;56.16;100854.97;2076463;28;1024;-55
2021/11/24 00:59:11;;;;;;;;;;;;;;;21.17;54.58;100853.09;2076582;28;807;-55
2021/11/24 01:00:15;;;;;;;;;;;;;;;21.15;57.36;100855.84;2076415;28;974;-55
2021/11/24 01:01:15;;;;;;;;;;;;;;;21.13;55.18;100857.72;2076488;28;835;-55
2021/11/24 01:02:15;;;;;;;;;;;;;;;21.08;57.37;100859.69;2076354;28;973;-55
2021/11/24 01:03:15;;;;;;;;;;;;;;;21.11;55.21;100858.69;2076526;28;799;-55
2021/11/24 01:04:15;;;;;;;;;;;;;;;21.10;56.47;100855.13;2076333;28;1981;-55
2021/11/24 01:05:16;;;;;;;;;;;;;;;21.14;55.92;100854.09;2076309;28;772;-55
2021/11/24 01:06:16;;;;;;;;;;;;;;;21.18;53.93;100860.25;2076404;28;794;-55
2021/11/24 01:07:16;;;;;;;;;;;;;;;21.11;56.20;100859.59;2076265;28;865;-55
2021/11/24 01:08:17;;;;;;;;;;;;;;;21.13;57.63;100857.72;2076231;28;1017;-55
2021/11/24 01:09:17;;;;;;;;;;;;;;;21.08;55.82;100866.88;2076459;28;799;-55
2021/11/24 01:10:17;;;;;;;;;;;;;;;21.13;55.83;100873.00;2076328;28;981;-55
2021/11/24 01:11:18;;;;;;;;;;;;;;;21.09;56.09;100869.53;2076220;28;1180;-55
2021/11/24 01:12:19;;;;;;;;;;;;;;;21.09;56.30;100866.84;2067545;28;1355;-55
2021/11/24 01:13:19;;;;;;;;;;;;;;;21.11;55.62;100866.78;2067748;28;820;-55
2021/11/24 01:14:19;;;;;;;;;;;;;;;21.14;54.24;100863.97;2076145;28;769;-57
2021/11/24 01:15:20;;;;;;;;;;;;;;;21.17;53.37;100869.25;2076483;28;1277;-55
2021/11/24 01:16:20;;;;;;;;;;;;;;;21.10;56.40;100870.41;2076183;28;973;-60
2021/11/24 01:17:20;;;;;;;;;;;;;;;21.02;57.36;100867.97;2076347;28;784;-55
2021/11/24 01:18:21;;;;;;;;;;;;;;;21.05;55.60;100869.69;2076297;28;818;-55
2021/11/24 01:19:22;;;;;;;;;;;;;;;21.04;56.97;100868.81;2076130;28;804;-55
2021/11/24 01:20:22;;;;;;;;;;;;;;;20.99;56.96;100866.25;2076124;28;982;-55
2021/11/24 01:21:22;;;;;;;;;;;;;;;20.97;56.48;100873.50;2076332;28;846;-55
2021/11/24 01:22:23;;;;;;;;;;;;;;;20.99;55.62;100863.56;2076241;28;989;-55
2021/11/24 01:23:23;;;;;;;;;;;;;;;21.02;56.04;100862.59;2076261;28;839;-55
2021/11/24 01:24:23;;;;;;;;;;;;;;;21.03;56.09;100856.28;2076161;28;1894;-55
2021/11/24 01:25:23;;;;;;;;;;;;;;;21.07;54.14;100857.94;2076071;28;854;-55
2021/11/24 01:26:24;;;;;;;;;;;;;;;21.06;54.46;100863.34;2076272;28;788;-55
2021/11/24 01:27:24;;;;;;;;;;;;;;;21.01;56.58;100847.38;2076253;28;966;-55
2021/11/24 01:28:24;;;;;;;;;;;;;;;21.01;55.03;100859.00;2076046;28;1013;-55
2021/11/24 01:29:24;;;;;;;;;;;;;;;21.00;55.88;100853.69;2076248;28;788;-55
2021/11/24 01:30:25;;;;;;;;;;;;;;;21.02;56.67;100846.44;2076207;28;886;-55
2021/11/24 01:31:25;;;;;;;;;;;;;;;21.02;54.49;100847.31;2076082;28;1013;-55
2021/11/24 01:32:25;;;;;;;;;;;;;;;21.04;56.26;100841.88;2076278;28;998;-55
2021/11/24 01:33:25;;;;;;;;;;;;;;;20.98;56.25;100852.88;2076157;28;828;-55
2021/11/24 01:34:26;;;;;;;;;;;;;;;20.91;56.78;100844.09;2076197;28;1010;-55
2021/11/24 01:35:26;;;;;;;;;;;;;;;20.97;55.21;100851.97;2076260;28;1025;-55
2021/11/24 01:36:27;;;;;;;;;;;;;;;20.98;55.65;100847.47;2076204;28;772;-55
2021/11/24 01:37:27;;;;;;;;;;;;;;;20.96;56.50;100846.66;2076219;28;1022;-55
2021/11/24 01:38:27;;;;;;;;;;;;;;;20.95;54.78;100842.19;2073350;28;1429;-56
2021/11/24 01:39:27;;;;;;;;;;;;;;;20.98;57.30;100844.78;2067905;28;840;-55
2021/11/24 01:40:27;;;;;;;;;;;;;;;20.97;56.57;100849.28;2068028;28;760;-56
2021/11/24 01:41:28;;;;;;;;;;;;;;;21.01;55.86;100847.38;2067994;28;978;-56
2021/11/24 01:42:28;;;;;;;;;;;;;;;20.98;55.45;100847.47;2068001;28;768;-55
2021/11/24 01:43:28;;;;;;;;;;;;;;;21.00;55.29;100840.22;2068064;28;837;-55
2021/11/24 01:44:29;;;;;;;;;;;;;;;20.96;55.17;100843.97;2067820;28;1949;-55
2021/11/24 01:45:29;;;;;;;;;;;;;;;20.92;56.80;100837.78;2067221;28;1024;-56
2021/11/24 01:46:29;;;;;;;;;;;;;;;20.93;56.74;100844.06;2067347;28;800;-56
2021/11/24 01:47:30;;;;;;;;;;;;;;;20.94;55.36;100841.31;2068037;28;851;-56
2021/11/24 01:48:30;;;;;;;;;;;;;;;20.98;56.37;100842.09;2068025;28;919;-55
2021/11/24 01:49:30;;;;;;;;;;;;;;;20.98;57.31;100836.72;2067842;28;788;-56
2021/11/24 01:50:31;;;;;;;;;;;;;;;20.98;57.08;100836.72;2067931;28;952;-56
2021/11/24 01:51:31;;;;;;;;;;;;;;;21.01;55.07;100842.00;2067946;28;733;-54
2021/11/24 01:52:32;;;;;;;;;;;;;;;21.06;56.40;100844.50;2067953;28;780;-54
2021/11/24 01:53:32;;;;;;;;;;;;;;;21.13;54.27;100846.06;2067924;28;1071;-55
2021/11/24 01:54:33;;;;;;;;;;;;;;;21.07;56.18;100839.09;2068017;28;1099;-55
2021/11/24 01:55:33;;;;;;;;;;;;;;;21.02;57.73;100844.63;2067974;28;787;-55
2021/11/24 01:56:33;;;;;;;;;;;;;;;21.02;56.66;100843.75;2067893;28;990;-55
2021/11/24 01:57:33;;;;;;;;;;;;;;;21.01;55.53;100837.47;2067616;28;1083;-55
2021/11/24 01:58:35;;;;;;;;;;;;;;;21.06;56.50;100844.50;2067893;28;1146;-54
2021/11/24 01:59:35;;;;;;;;;;;;;;;21.04;56.47;100839.19;2067680;28;812;-55
2021/11/24 02:00:36;;;;;;;;;;;;;;;21.00;57.38;100835.72;2067903;28;887;-55
2021/11/24 02:01:41;;;;;;;;;;;;;;;20.98;56.04;100837.56;2058569;28;2431;-54
2021/11/24 02:02:41;;;;;;;;;;;;;;;20.97;56.80;100837.66;2059656;28;800;-54
2021/11/24 02:03:41;;;;;;;;;;;;;;;20.99;54.95;100844.72;2067863;28;870;-55
2021/11/24 02:04:42;;;;;;;;;;;;;;;21.00;54.74;100840.22;2067885;28;1974;-55
2021/11/24 02:05:42;;;;;;;;;;;;;;;20.97;56.38;100843.91;2067895;28;974;-55
2021/11/24 02:06:43;;;;;;;;;;;;;;;20.91;56.90;100845.94;2067898;28;807;-55
2021/11/24 02:07:43;;;;;;;;;;;;;;;20.97;56.13;100843.91;2067739;28;894;-56
2021/11/24 02:08:43;;;;;;;;;;;;;;;20.99;55.43;100839.34;2067679;28;1048;-55
2021/11/24 02:09:44;;;;;;;;;;;;;;;21.00;55.55;100843.78;2067795;28;969;-55
2021/11/24 02:10:44;;;;;;;;;;;;;;;20.98;57.62;100851.03;2067691;28;879;-55
2021/11/24 02:11:44;;;;;;;;;;;;;;;20.95;55.88;100842.19;2067633;28;827;-55
2021/11/24 02:12:45;;;;;;;;;;;;;;;20.99;57.12;100849.25;2067878;28;855;-55
2021/11/24 02:13:45;;;;;;;;;;;;;;;20.93;56.63;100842.25;2067590;28;822;-55
2021/11/24 02:14:46;;;;;;;;;;;;;;;20.97;55.95;100846.59;2067784;28;910;-55
2021/11/24 02:15:46;;;;;;;;;;;;;;;20.96;56.29;100835.88;2067660;28;772;-55
2021/11/24 02:16:47;;;;;;;;;;;;;;;20.94;55.69;100845.81;2067801;28;1036;-54
2021/11/24 02:17:48;;;;;;;;;;;;;;;20.96;54.79;100843.97;2067806;28;926;-55
2021/11/24 02:18:48;;;;;;;;;;;;;;;20.93;56.98;100841.38;2067875;28;840;-55
2021/11/24 02:19:48;;;;;;;;;;;;;;;20.96;56.26;100838.56;2067379;28;1021;-55
2021/11/24 02:20:48;;;;;;;;;;;;;;;20.96;54.11;100835.88;2067801;28;843;-55
2021/11/24 02:21:50;;;;;;;;;;;;;;;20.99;53.86;100825.00;2067678;28;914;-55
2021/11/24 02:22:50;;;;;;;;;;;;;;;21.01;56.36;100824.00;2067759;28;993;-55
2021/11/24 02:23:50;;;;;;;;;;;;;;;20.95;56.68;100828.75;2067633;28;1886;-55
2021/11/24 02:24:50;;;;;;;;;;;;;;;20.91;56.90;100827.09;2067404;28;768;-54
2021/11/24 02:25:50;;;;;;;;;;;;;;;20.88;57.64;100820.88;2067679;28;812;-55
2021/11/24 02:26:51;;;;;;;;;;;;;;;20.89;56.50;100824.47;2067855;28;660;-55
2021/11/24 02:27:51;;;;;;;;;;;;;;;20.87;54.60;100823.63;2067696;28;1029;-55
2021/11/24 02:28:51;;;;;;;;;;;;;;;20.96;54.22;100825.09;2067768;28;808;-54
2021/11/24 02:29:51;;;;;;;;;;;;;;;21.01;55.31;100828.53;2067627;28;1029;-55
2021/11/24 02:30:51;;;;;;;;;;;;;;;21.01;55.15;100820.44;2067687;28;1453;-55
2021/11/24 02:31:53;;;;;;;;;;;;;;;20.97;54.91;100818.78;2067648;28;772;-55
2021/11/24 02:32:53;;;;;;;;;;;;;;;20.93;56.57;100815.31;2067354;28;871;-55
2021/11/24 02:33:57;;;;;;;;;;;;;;;20.92;55.29;100829.72;2067653;28;1208;-55
2021/11/24 02:34:57;;;;;;;;;;;;;;;20.95;54.70;100828.75;2067637;28;779;-55
2021/11/24 02:35:57;;;;;;;;;;;;;;;20.96;54.72;100830.50;2067501;28;791;-55
2021/11/24 02:36:57;;;;;;;;;;;;;;;20.96;55.53;100822.41;2067645;28;1200;-55
2021/11/24 02:37:58;;;;;;;;;;;;;;;20.97;55.89;100826.88;2067639;28;991;-55
2021/11/24 02:39:02;;;;;;;;;;;;;;;20.96;55.43;100822.41;2074303;28;1409;-55
2021/11/24 02:40:03;;;;;;;;;;;;;;;20.94;53.82;100824.28;2075722;28;792;-55
2021/11/24 02:41:03;;;;;;;;;;;;;;;20.95;54.77;100826.03;2075359;28;994;-55
2021/11/24 02:42:03;;;;;;;;;;;;;;;20.92;55.03;100831.53;2075636;28;1391;-55
2021/11/24 02:43:04;;;;;;;;;;;;;;;20.91;55.17;100830.63;2075692;28;981;-54
2021/11/24 02:44:16;;;;;;;;;;;;;;;20.88;55.92;100820.88;2075243;28;1890;-55
2021/11/24 02:45:17;;;;;;;;;;;;;;;20.92;55.62;100824.31;2075701;28;788;-55
2021/11/24 02:46:17;;;;;;;;;;;;;;;20.92;56.53;100823.47;2075518;28;1563;-55
2021/11/24 02:47:22;;;;;;;;;;;;;;;20.86;56.58;100822.72;2075735;28;908;-55
2021/11/24 02:48:22;;;;;;;;;;;;;;;20.95;54.60;100826.03;2075660;28;815;-55
2021/11/24 02:49:23;;;;;;;;;;;;;;;20.95;55.53;100824.22;2075674;28;829;-55
2021/11/24 02:50:23;;;;;;;;;;;;;;;20.88;55.12;100826.25;2075577;28;1025;-55
2021/11/24 02:51:23;;;;;;;;;;;;;;;20.88;55.44;100820.00;2075617;28;875;-54
2021/11/24 02:52:23;;;;;;;;;;;;;;;20.92;54.37;100816.25;2075570;28;795;-55
2021/11/24 02:53:28;;;;;;;;;;;;;;;20.93;55.49;100811.75;2075617;28;846;-55
2021/11/24 02:54:28;;;;;;;;;;;;;;;20.93;54.47;100811.75;2075188;28;772;-55
2021/11/24 02:55:28;;;;;;;;;;;;;;;20.94;55.23;100805.44;2075554;28;846;-55
2021/11/24 02:56:28;;;;;;;;;;;;;;;20.88;55.25;100814.63;2075661;28;913;-55
2021/11/24 02:57:33;;;;;;;;;;;;;;;20.93;54.13;100809.06;2074956;28;1003;-55
2021/11/24 02:58:33;;;;;;;;;;;;;;;20.86;55.67;100813.78;2075543;28;1044;-55
2021/11/24 02:59:33;;;;;;;;;;;;;;;20.94;53.57;100808.13;2075387;28;1116;-55
2021/11/24 03:00:33;;;;;;;;;;;;;;;20.90;54.89;100807.38;2075586;28;989;-55
2021/11/24 03:01:34;;;;;;;;;;;;;;;20.94;53.94;100817.06;2075533;28;950;-55
2021/11/24 03:02:34;;;;;;;;;;;;;;;20.92;55.68;100818.06;2075464;28;843;-55
2021/11/24 03:03:34;;;;;;;;;;;;;;;20.88;54.86;100825.41;2075443;28;989;-55
2021/11/24 03:04:34;;;;;;;;;;;;;;;20.90;55.18;100815.44;2075416;28;1973;-55
2021/11/24 03:05:35;;;;;;;;;;;;;;;20.90;54.77;100819.94;2075445;28;772;-55
2021/11/24 03:06:35;;;;;;;;;;;;;;;20.91;53.00;100819.00;2075463;28;818;-55
2021/11/24 03:07:36;;;;;;;;;;;;;;;20.91;54.75;100825.25;2075176;28;974;-55
2021/11/24 03:08:36;;;;;;;;;;;;;;;20.98;53.58;100823.25;2075351;28;986;-55
2021/11/24 03:09:36;;;;;;;;;;;;;;;20.98;55.13;100817.84;2075508;28;863;-54
2021/11/24 03:10:37;;;;;;;;;;;;;;;20.96;54.55;100817.03;2075069;28;1263;-55
2021/11/24 03:11:37;;;;;;;;;;;;;;;20.94;55.10;100813.50;2075423;28;870;-55
2021/11/24 03:12:37;;;;;;;;;;;;;;;20.90;55.57;100810.06;2075416;28;882;-55
2021/11/24 03:13:37;;;;;;;;;;;;;;;20.90;54.66;100815.44;2075241;28;981;-55
2021/11/24 03:14:38;;;;;;;;;;;;;;;20.90;55.59;100811.84;2075448;28;772;-55
2021/11/24 03:15:38;;;;;;;;;;;;;;;20.84;54.03;100813.84;2075426;28;767;-55
2021/11/24 03:16:38;;;;;;;;;;;;;;;20.82;55.54;100813.00;2075090;28;855;-55
2021/11/24 03:17:38;;;;;;;;;;;;;;;20.91;53.08;100808.22;2075457;28;863;-55
2021/11/24 03:18:38;;;;;;;;;;;;;;;20.92;53.06;100802.78;2075373;28;878;-55
2021/11/24 03:19:38;;;;;;;;;;;;;;;20.99;53.46;100811.53;2075432;28;993;-55
2021/11/24 03:20:39;;;;;;;;;;;;;;;20.98;54.08;100807.94;2075262;28;1032;-55
2021/11/24 03:21:39;;;;;;;;;;;;;;;20.97;53.90;100805.31;2075233;28;986;-55
2021/11/24 03:22:39;;;;;;;;;;;;;;;20.89;54.23;100800.22;2075378;28;902;-55
2021/11/24 03:23:39;;;;;;;;;;;;;;;20.86;54.44;100797.63;2075417;28;798;-55
2021/11/24 03:24:39;;;;;;;;;;;;;;;20.82;54.86;100794.16;2075149;28;1938;-55
2021/11/24 03:25:40;;;;;;;;;;;;;;;20.81;55.62;100791.53;2075337;28;1053;-55
2021/11/24 03:26:40;;;;;;;;;;;;;;;20.85;54.45;100794.06;2075356;28;851;-62
2021/11/24 03:27:41;;;;;;;;;;;;;;;20.86;54.00;100795.81;2075382;28;962;-55
2021/11/24 03:28:41;;;;;;;;;;;;;;;20.85;55.47;100794.06;2075331;28;1009;-54
2021/11/24 03:29:42;;;;;;;;;;;;;;;20.84;54.29;100797.69;2075157;28;859;-55
2021/11/24 03:30:42;;;;;;;;;;;;;;;20.86;54.99;100801.19;2075359;28;962;-56
2021/11/24 03:31:42;;;;;;;;;;;;;;;20.89;53.97;100800.22;2075289;28;982;-55
2021/11/24 03:32:42;;;;;;;;;;;;;;;20.93;54.02;100801.84;2075253;28;990;-55
2021/11/24 03:33:42;;;;;;;;;;;;;;;20.90;54.37;100801.97;2075301;28;870;-55
2021/11/24 03:34:43;;;;;;;;;;;;;;;20.90;55.17;100801.09;2075107;28;1028;-55
2021/11/24 03:35:43;;;;;;;;;;;;;;;20.91;53.43;100806.41;2075253;28;843;-55
2021/11/24 03:36:43;;;;;;;;;;;;;;;20.95;53.27;100804.50;2075317;28;978;-55
2021/11/24 03:37:44;;;;;;;;;;;;;;;20.93;54.51;100807.22;2075071;28;1054;-54
2021/11/24 03:38:44;;;;;;;;;;;;;;;20.89;54.82;100811.00;2070309;28;1498;-56
2021/11/24 03:39:45;;;;;;;;;;;;;;;20.82;57.36;100804.94;2067075;28;887;-56
2021/11/24 03:40:46;;;;;;;;;;;;;;;20.80;54.61;100800.53;2067043;28;1045;-55
2021/11/24 03:41:46;;;;;;;;;;;;;;;20.87;55.46;100807.47;2067004;28;990;-55
2021/11/24 03:42:47;;;;;;;;;;;;;;;20.86;55.92;100809.28;2067111;28;692;-55
2021/11/24 03:43:47;;;;;;;;;;;;;;;20.85;54.03;100803.97;2066918;28;808;-55
2021/11/24 03:44:47;;;;;;;;;;;;;;;20.92;53.92;100804.59;2067050;28;1906;-55
2021/11/24 03:45:48;;;;;;;;;;;;;;;20.91;54.44;100805.53;2066942;28;990;-55
2021/11/24 03:46:48;;;;;;;;;;;;;;;20.81;55.02;100800.47;2067158;28;820;-55
2021/11/24 03:47:48;;;;;;;;;;;;;;;20.83;55.42;100795.91;2058351;28;1543;-55
2021/11/24 03:48:49;;;;;;;;;;;;;;;20.88;53.65;100803.84;2058497;28;1539;-55
2021/11/24 03:49:49;;;;;;;;;;;;;;;20.88;54.49;100796.63;2067014;28;823;-55
2021/11/24 03:50:49;;;;;;;;;;;;;;;20.83;53.88;100798.59;2067024;28;1222;-55
2021/11/24 03:51:51;;;;;;;;;;;;;;;20.81;55.00;100768.16;2067010;28;753;-55
2021/11/24 03:52:51;;;;;;;;;;;;;;;20.74;57.37;100769.28;2067072;28;796;-55
2021/11/24 03:53:51;;;;;;;;;;;;;;;20.80;56.20;100768.25;2066937;28;1260;-55
2021/11/24 03:54:51;;;;;;;;;;;;;;;20.90;54.27;100764.28;2067115;28;796;-55
2021/11/24 03:55:51;;;;;;;;;;;;;;;20.89;54.76;100773.31;2067040;28;776;-55
2021/11/24 03:56:51;;;;;;;;;;;;;;;20.85;54.33;100740.22;2066625;28;1338;-55
2021/11/24 03:57:52;;;;;;;;;;;;;;;20.81;54.06;100752.00;2067052;28;971;-55
2021/11/24 03:58:52;;;;;;;;;;;;;;;20.82;54.41;100810.31;2067028;28;785;-55
2021/11/24 03:59:52;;;;;;;;;;;;;;;20.91;53.84;100833.34;2066951;28;982;-55
2021/11/24 04:00:52;;;;;;;;;;;;;;;20.82;55.16;100810.31;2066989;28;847;-55
2021/11/24 04:01:53;;;;;;;;;;;;;;;20.77;55.24;100801.50;2066562;28;782;-55
2021/11/24 04:02:53;;;;;;;;;;;;;;;20.75;55.82;100795.28;2067035;28;769;-55
2021/11/24 04:03:53;;;;;;;;;;;;;;;20.77;55.46;100806.91;2066879;28;1980;-55
2021/11/24 04:04:53;;;;;;;;;;;;;;;20.74;56.21;100798.91;2066715;28;1121;-55
2021/11/24 04:05:54;;;;;;;;;;;;;;;20.76;54.61;100780.88;2067010;28;923;-55
2021/11/24 04:06:54;;;;;;;;;;;;;;;20.81;55.73;100788.84;2066968;28;793;-55
2021/11/24 04:07:55;;;;;;;;;;;;;;;20.81;54.22;100786.16;2066559;28;982;-55
2021/11/24 04:08:55;;;;;;;;;;;;;;;20.83;54.50;100795.06;2066269;28;781;-54
2021/11/24 04:09:55;;;;;;;;;;;;;;;20.82;55.58;100783.38;2066968;28;788;-55
2021/11/24 04:10:56;;;;;;;;;;;;;;;20.81;54.81;100784.31;2066890;28;757;-55
2021/11/24 04:11:56;;;;;;;;;;;;;;;20.82;53.74;100780.69;2066907;28;792;-55
2021/11/24 04:12:56;;;;;;;;;;;;;;;20.74;54.17;100764.78;2066863;28;896;-55
2021/11/24 04:13:56;;;;;;;;;;;;;;;20.74;55.78;100769.28;2066498;28;1454;-55
2021/11/24 04:14:56;;;;;;;;;;;;;;;20.86;53.86;100779.66;2066936;28;843;-55
2021/11/24 04:15:57;;;;;;;;;;;;;;;20.81;55.15;100770.88;2066749;28;1394;-55
2021/11/24 04:16:57;;;;;;;;;;;;;;;20.83;54.38;100774.38;2066861;28;998;-55
2021/11/24 04:17:57;;;;;;;;;;;;;;;20.87;54.60;100780.56;2058143;28;812;-55
2021/11/24 04:19:00;;;;;;;;;;;;;;;20.96;52.50;100773.94;2058033;28;931;-55
2021/11/24 04:20:00;;;;;;;;;;;;;;;20.91;53.53;100771.41;2066819;28;820;-60
2021/11/24 04:21:00;;;;;;;;;;;;;;;20.90;54.76;100768.78;2066945;28;835;-55
2021/11/24 04:22:01;;;;;;;;;;;;;;;20.92;54.56;100764.22;2066771;28;887;-56
2021/11/24 04:23:01;;;;;;;;;;;;;;;20.88;54.35;100753.56;2066940;28;1059;-55
2021/11/24 04:24:02;;;;;;;;;;;;;;;20.93;53.75;100763.28;2066659;28;1965;-55
2021/11/24 04:25:03;;;;;;;;;;;;;;;20.92;53.79;100758.84;2066602;28;947;-55
2021/11/24 04:26:03;;;;;;;;;;;;;;;20.88;55.03;100758.94;2066838;28;827;-56
2021/11/24 04:27:03;;;;;;;;;;;;;;;20.87;54.16;100751.81;2066868;28;1033;-54
2021/11/24 04:28:03;;;;;;;;;;;;;;;20.89;54.08;100759.84;2066858;28;1034;-55
2021/11/24 04:29:03;;;;;;;;;;;;;;;20.90;53.68;100750.81;2066902;28;1069;-55
2021/11/24 04:30:04;;;;;;;;;;;;;;;20.93;53.94;100745.28;2066447;28;990;-55
2021/11/24 04:31:09;;;;;;;;;;;;;;;20.97;52.16;100752.34;2066918;28;906;-55
2021/11/24 04:32:09;;;;;;;;;;;;;;;20.94;54.68;100751.56;2066893;28;940;-55
2021/11/24 04:33:09;;;;;;;;;;;;;;;20.76;55.46;100748.56;2066492;28;1053;-55
2021/11/24 04:34:09;;;;;;;;;;;;;;;20.79;54.48;100750.31;2066773;28;828;-55
2021/11/24 04:35:10;;;;;;;;;;;;;;;20.86;55.35;100747.34;2066849;28;987;-55
2021/11/24 04:36:10;;;;;;;;;;;;;;;20.89;54.22;100743.69;2058184;28;1268;-55
2021/11/24 04:37:10;;;;;;;;;;;;;;;20.86;56.18;100747.34;2058361;28;899;-55
2021/11/24 04:38:10;;;;;;;;;;;;;;;20.82;55.39;100751.09;2066903;28;1179;-55
2021/11/24 04:39:10;;;;;;;;;;;;;;;20.91;53.29;100759.78;2074812;28;854;-55
2021/11/24 04:40:11;;;;;;;;;;;;;;;20.89;56.11;100754.44;2074908;28;851;-55
2021/11/24 04:41:11;;;;;;;;;;;;;;;20.80;55.45;100752.09;2074933;28;1270;-55
2021/11/24 04:42:11;;;;;;;;;;;;;;;20.88;53.27;100756.25;2074911;28;926;-55
2021/11/24 04:43:14;;;;;;;;;;;;;;;20.89;53.34;100754.44;2075012;28;970;-55
2021/11/24 04:44:14;;;;;;;;;;;;;;;20.86;53.36;100758.13;2074805;28;1957;-55
2021/11/24 04:45:14;;;;;;;;;;;;;;;20.86;55.35;100754.56;2074976;28;863;-55
2021/11/24 04:46:16;;;;;;;;;;;;;;;20.84;53.86;100759.97;2065925;28;1045;-55
2021/11/24 04:47:16;;;;;;;;;;;;;;;20.85;54.09;100756.34;2066274;28;891;-55
2021/11/24 04:48:17;;;;;;;;;;;;;;;20.84;55.30;100757.28;2074909;28;764;-55
2021/11/24 04:49:17;;;;;;;;;;;;;;;20.85;54.41;100758.19;2074877;28;790;-55
2021/11/24 04:50:17;;;;;;;;;;;;;;;20.85;55.52;100761.75;2074913;28;841;-55
2021/11/24 04:51:17;;;;;;;;;;;;;;;20.79;55.64;100761.97;2074884;28;804;-55
2021/11/24 04:52:18;;;;;;;;;;;;;;;20.80;54.15;100763.72;2074806;28;794;-55
2021/11/24 04:53:18;;;;;;;;;;;;;;;20.83;53.77;100757.38;2074943;28;785;-55
2021/11/24 04:54:18;;;;;;;;;;;;;;;20.83;53.71;100757.38;2074701;28;946;-55
2021/11/24 04:55:18;;;;;;;;;;;;;;;20.84;53.26;100757.28;2074923;28;981;-55
2021/11/24 04:56:18;;;;;;;;;;;;;;;20.84;54.78;100757.28;2074818;28;974;-55
2021/11/24 04:57:18;;;;;;;;;;;;;;;20.86;55.06;100757.25;2074383;28;1035;-55
2021/11/24 04:58:19;;;;;;;;;;;;;;;20.86;55.16;100757.25;2074900;28;823;-55
2021/11/24 04:59:19;;;;;;;;;;;;;;;20.84;53.61;100754.59;2074877;28;752;-55
2021/11/24 05:00:22;;;;;;;;;;;;;;;20.86;54.75;100751.88;2074797;28;792;-55
2021/11/24 05:01:22;;;;;;;;;;;;;;;20.82;54.07;100753.78;2074869;28;812;-55
2021/11/24 05:02:22;;;;;;;;;;;;;;;20.81;54.18;100751.16;2074598;28;973;-55
2021/11/24 05:03:22;;;;;;;;;;;;;;;20.85;54.04;100752.81;2074892;28;807;-55
2021/11/24 05:04:25;;;;;;;;;;;;;;;20.78;56.01;100749.44;2074827;28;1914;-55
2021/11/24 05:05:29;;;;;;;;;;;;;;;21.32;53.52;100751.97;2074750;28;871;-56
2021/11/24 05:06:30;;;;;;;;;;;;;;;21.80;51.96;100736.66;2074766;28;843;-55
2021/11/24 05:07:30;;;;;;;;;;;;;;;22.01;52.03;100744.84;2074864;28;969;-56
2021/11/24 05:08:30;;;;;;;;;;;;;;;22.12;52.98;100745.25;2074899;28;900;-56
2021/11/24 05:09:30;;;;;;;;;;;;;;;22.17;50.78;100758.56;2066041;28;1333;-55
2021/11/24 05:10:30;;;;;;;;;;;;;;;22.31;50.63;100760.69;2065781;28;808;-55
2021/11/24 05:11:31;;;;;;;;;;;;;;;22.36;51.98;100762.25;2074673;28;1216;-55
2021/11/24 05:12:31;;;;;;;;;;;;;;;22.39;50.60;100765.75;2074821;28;816;-55
2021/11/24 05:13:31;;;;;;;;;;;;;;;22.44;51.11;100766.47;2066115;28;1045;-55
2021/11/24 05:14:36;;;;;;;;;;;;;;;22.50;51.28;100761.69;2066201;28;811;-55
2021/11/24 05:15:39;;;;;;;;;;;;;;;22.61;51.06;100769.31;2074666;28;870;-55
2021/11/24 05:16:43;;;;;;;;;;;;;;;22.68;51.54;100775.31;2074765;28;725;-56
2021/11/24 05:17:46;;;;;;;;;;;;;;;22.67;49.74;100770.88;2074696;28;946;-55